sensor_id;sensor_type;location;lat;lon;timestamp;pressure;altitude;pressure_sealevel;temperature;humidity
58739;BME280;44512;53.046;18.604;2023-08-01T00:06:12;100548.87;;;21.48;54.80
58739;BME280;44512;53.046;18.604;2023-08-01T00:16:41;100546.12;;;21.48;54.72
58739;BME280;44512;53.046;18.604;2023-08-01T00:27:09;100546.94;;;21.48;54.75
58739;BME280;44512;53.046;18.604;2023-08-01T00:37:37;100516.95;;;21.47;54.52
58739;BME280;44512;53.046;18.604;2023-08-01T00:48:06;100505.10;;;21.46;54.39
58739;BME280;44512;53.046;18.604;2023-08-01T00:58:34;100475.64;;;21.47;54.35
58739;BME280;44512;53.046;18.604;2023-08-01T01:19:31;100450.86;;;21.47;54.19
58739;BME280;44512;53.046;18.604;2023-08-01T01:30:00;100445.35;;;21.47;54.23
58739;BME280;44512;53.046;18.604;2023-08-01T01:40:27;100426.08;;;21.47;54.34
58739;BME280;44512;53.046;18.604;2023-08-01T01:50:56;100416.17;;;21.46;54.36
58739;BME280;44512;53.046;18.604;2023-08-01T02:01:24;100392.48;;;21.45;54.55
58739;BME280;44512;53.046;18.604;2023-08-01T02:11:52;100383.69;;;21.43;54.58
58739;BME280;44512;53.046;18.604;2023-08-01T02:22:21;100364.70;;;21.41;54.71
58739;BME280;44512;53.046;18.604;2023-08-01T02:32:49;100344.87;;;21.39;54.74
58739;BME280;44512;53.046;18.604;2023-08-01T02:43:17;100344.34;;;21.37;54.84
58739;BME280;44512;53.046;18.604;2023-08-01T02:53:46;100321.79;;;21.35;54.94
58739;BME280;44512;53.046;18.604;2023-08-01T03:04:14;100319.29;;;21.33;54.90
58739;BME280;44512;53.046;18.604;2023-08-01T03:14:43;100304.41;;;21.29;55.01
58739;BME280;44512;53.046;18.604;2023-08-01T03:25:11;100299.20;;;21.28;55.04
58739;BME280;44512;53.046;18.604;2023-08-01T03:35:39;100292.04;;;21.27;55.15
58739;BME280;44512;53.046;18.604;2023-08-01T03:46:09;100284.08;;;21.25;55.28
58739;BME280;44512;53.046;18.604;2023-08-01T03:56:36;100277.76;;;21.25;55.36
58739;BME280;44512;53.046;18.604;2023-08-01T04:07:05;100260.42;;;21.24;55.51
58739;BME280;44512;53.046;18.604;2023-08-01T04:17:33;100254.35;;;21.22;55.64
58739;BME280;44512;53.046;18.604;2023-08-01T04:28:01;100255.47;;;21.21;56.19
58739;BME280;44512;53.046;18.604;2023-08-01T04:38:29;100234.55;;;21.20;56.76
58739;BME280;44512;53.046;18.604;2023-08-01T04:48:58;100230.17;;;21.19;57.33
58739;BME280;44512;53.046;18.604;2023-08-01T04:59:26;100234.00;;;21.18;57.86
58739;BME280;44512;53.046;18.604;2023-08-01T05:09:54;100237.88;;;21.17;58.15
58739;BME280;44512;53.046;18.604;2023-08-01T05:20:23;100236.23;;;21.16;58.64
58739;BME280;44512;53.046;18.604;2023-08-01T05:30:51;100229.34;;;21.14;59.10
58739;BME280;44512;53.046;18.604;2023-08-01T05:41:19;100224.14;;;21.12;59.38
58739;BME280;44512;53.046;18.604;2023-08-01T05:51:48;100228.55;;;21.08;59.84
58739;BME280;44512;53.046;18.604;2023-08-01T06:02:16;100216.48;;;21.04;60.35
58739;BME280;44512;53.046;18.604;2023-08-01T06:12:45;100227.49;;;21.04;60.77
58739;BME280;44512;53.046;18.604;2023-08-01T06:23:13;100211.52;;;21.01;61.32
58739;BME280;44512;53.046;18.604;2023-08-01T06:33:41;100204.39;;;21.00;61.78
58739;BME280;44512;53.046;18.604;2023-08-01T06:44:09;100204.94;;;20.97;62.28
58739;BME280;44512;53.046;18.604;2023-08-01T06:54:38;100200.02;;;20.94;62.84
58739;BME280;44512;53.046;18.604;2023-08-01T07:05:07;100191.20;;;20.92;63.38
58739;BME280;44512;53.046;18.604;2023-08-01T07:15:34;100189.56;;;20.91;63.66
58739;BME280;44512;53.046;18.604;2023-08-01T07:26:03;100179.96;;;20.88;64.08
58739;BME280;44512;53.046;18.604;2023-08-01T07:36:31;100160.15;;;20.86;64.58
58739;BME280;44512;53.046;18.604;2023-08-01T07:46:59;100159.34;;;20.86;64.92
58739;BME280;44512;53.046;18.604;2023-08-01T07:57:28;100149.44;;;20.85;65.22
58739;BME280;44512;53.046;18.604;2023-08-01T08:07:56;100150.55;;;20.84;65.43
58739;BME280;44512;53.046;18.604;2023-08-01T08:18:25;100138.73;;;20.83;65.71
58739;BME280;44512;53.046;18.604;2023-08-01T08:28:53;100134.05;;;20.84;65.82
58739;BME280;44512;53.046;18.604;2023-08-01T08:39:21;100137.88;;;20.83;66.00
58739;BME280;44512;53.046;18.604;2023-08-01T08:49:50;100124.13;;;20.83;66.30
58739;BME280;44512;53.046;18.604;2023-08-01T09:00:19;100113.42;;;20.81;66.49
58739;BME280;44512;53.046;18.604;2023-08-01T09:10:47;100107.10;;;20.80;66.59
58739;BME280;44512;53.046;18.604;2023-08-01T09:21:18;100090.60;;;20.80;66.75
58739;BME280;44512;53.046;18.604;2023-08-01T09:31:43;100080.41;;;20.81;67.13
58739;BME280;44512;53.046;18.604;2023-08-01T09:42:11;100079.01;;;20.89;67.76
58739;BME280;44512;53.046;18.604;2023-08-01T09:52:40;100058.02;;;20.98;68.06
58739;BME280;44512;53.046;18.604;2023-08-01T10:03:08;100039.80;;;21.07;68.33
58739;BME280;44512;53.046;18.604;2023-08-01T10:13:37;100033.70;;;21.15;68.41
58739;BME280;44512;53.046;18.604;2023-08-01T10:24:06;100026.99;;;21.26;68.32
58739;BME280;44512;53.046;18.604;2023-08-01T10:56:20;99976.33;;;21.32;68.70
58739;BME280;44512;53.046;18.604;2023-08-01T11:06:53;99962.46;;;21.43;68.13
58739;BME280;44512;53.046;18.604;2023-08-01T11:17:17;99957.27;;;21.41;67.43
58739;BME280;44512;53.046;18.604;2023-08-01T11:27:45;99945.44;;;21.41;67.22
58739;BME280;44512;53.046;18.604;2023-08-01T11:38:13;99922.59;;;21.40;67.26
58739;BME280;44512;53.046;18.604;2023-08-01T11:48:45;99939.43;;;21.33;67.27
58739;BME280;44512;53.046;18.604;2023-08-01T11:59:15;99933.93;;;21.33;67.72
58739;BME280;44512;53.046;18.604;2023-08-01T12:09:39;99924.55;;;21.35;68.60
58739;BME280;44512;53.046;18.604;2023-08-01T12:20:08;99896.00;;;21.30;68.38
58739;BME280;44512;53.046;18.604;2023-08-01T12:30:35;99885.27;;;21.24;68.18
58739;BME280;44512;53.046;18.604;2023-08-01T12:41:04;99871.00;;;21.22;68.70
58739;BME280;44512;53.046;18.604;2023-08-01T12:51:32;99878.74;;;21.20;69.34
58739;BME280;44512;53.046;18.604;2023-08-01T13:02:00;99865.74;;;21.25;70.22
58739;BME280;44512;53.046;18.604;2023-08-01T13:12:29;99855.23;;;21.32;70.61
58739;BME280;44512;53.046;18.604;2023-08-01T13:22:57;99859.55;;;21.39;70.23
58739;BME280;44512;53.046;18.604;2023-08-01T13:33:25;99838.59;;;21.43;70.09
58739;BME280;44512;53.046;18.604;2023-08-01T13:43:54;99835.77;;;21.48;69.66
58739;BME280;44512;53.046;18.604;2023-08-01T13:54:22;99815.25;;;21.59;69.39
58739;BME280;44512;53.046;18.604;2023-08-01T14:04:51;99798.01;;;21.72;69.31
58739;BME280;44512;53.046;18.604;2023-08-01T14:15:20;99796.51;;;21.80;68.01
58739;BME280;44512;53.046;18.604;2023-08-01T14:25:47;99771.37;;;21.87;67.26
58739;BME280;44512;53.046;18.604;2023-08-01T14:36:15;99757.52;;;21.92;66.29
58739;BME280;44512;53.046;18.604;2023-08-01T14:46:44;99767.34;;;21.98;65.37
58739;BME280;44512;53.046;18.604;2023-08-01T14:57:12;99796.52;;;21.99;65.20
58739;BME280;44512;53.046;18.604;2023-08-01T15:07:40;99804.03;;;21.74;66.65
58739;BME280;44512;53.046;18.604;2023-08-01T15:18:09;99820.44;;;21.42;67.34
58739;BME280;44512;53.046;18.604;2023-08-01T15:28:37;99826.52;;;21.15;68.59
58739;BME280;44512;53.046;18.604;2023-08-01T15:39:05;99828.39;;;21.19;69.85
58739;BME280;44512;53.046;18.604;2023-08-01T15:49:34;99848.63;;;21.76;70.77
58739;BME280;44512;53.046;18.604;2023-08-01T16:00:02;99848.95;;;21.94;70.16
58739;BME280;44512;53.046;18.604;2023-08-01T16:10:30;99852.89;;;21.88;69.55
58739;BME280;44512;53.046;18.604;2023-08-01T16:20:59;99868.05;;;21.85;69.62
58739;BME280;44512;53.046;18.604;2023-08-01T16:31:27;99890.46;;;21.78;69.70
58739;BME280;44512;53.046;18.604;2023-08-01T16:41:55;99899.16;;;21.67;69.90
58739;BME280;44512;53.046;18.604;2023-08-01T16:52:24;99896.47;;;21.62;69.95
58739;BME280;44512;53.046;18.604;2023-08-01T17:02:52;99912.23;;;21.56;70.22
58739;BME280;44512;53.046;18.604;2023-08-01T17:13:20;99928.14;;;21.59;70.51
58739;BME280;44512;53.046;18.604;2023-08-01T17:23:49;99931.77;;;21.54;70.84
58739;BME280;44512;53.046;18.604;2023-08-01T17:34:17;99940.03;;;21.54;71.28
58739;BME280;44512;53.046;18.604;2023-08-01T17:44:45;99939.22;;;21.54;71.54
58739;BME280;44512;53.046;18.604;2023-08-01T17:55:14;99946.96;;;21.52;71.76
58739;BME280;44512;53.046;18.604;2023-08-01T18:05:42;99936.82;;;21.47;71.79
58739;BME280;44512;53.046;18.604;2023-08-01T18:16:19;99937.23;;;21.36;72.05
58739;BME280;44512;53.046;18.604;2023-08-01T18:26:39;99967.26;;;21.32;72.03
58739;BME280;44512;53.046;18.604;2023-08-01T18:37:07;99968.09;;;21.27;72.08
58739;BME280;44512;53.046;18.604;2023-08-01T18:47:35;99980.01;;;21.18;72.23
58739;BME280;44512;53.046;18.604;2023-08-01T18:58:04;99988.35;;;21.07;72.21
58739;BME280;44512;53.046;18.604;2023-08-01T19:08:32;99982.07;;;21.02;72.24
58739;BME280;44512;53.046;18.604;2023-08-01T19:19:00;100005.23;;;20.96;72.09
58739;BME280;44512;53.046;18.604;2023-08-01T19:29:29;100009.66;;;20.92;71.69
58739;BME280;44512;53.046;18.604;2023-08-01T19:39:57;100023.45;;;20.87;71.51
58739;BME280;44512;53.046;18.604;2023-08-01T19:50:25;100036.44;;;20.76;71.56
58739;BME280;44512;53.046;18.604;2023-08-01T20:00:54;100054.62;;;20.72;71.89
58739;BME280;44512;53.046;18.604;2023-08-01T20:11:22;100070.87;;;20.68;72.08
58739;BME280;44512;53.046;18.604;2023-08-01T20:21:50;100093.97;;;20.62;72.13
58739;BME280;44512;53.046;18.604;2023-08-01T20:32:19;100104.74;;;20.59;72.22
58739;BME280;44512;53.046;18.604;2023-08-01T20:42:50;100093.47;;;20.55;72.23
58739;BME280;44512;53.046;18.604;2023-08-01T20:53:16;100086.88;;;20.51;71.95
58739;BME280;44512;53.046;18.604;2023-08-01T21:03:44;100094.59;;;20.44;71.66
58739;BME280;44512;53.046;18.604;2023-08-01T21:14:12;100102.56;;;20.40;71.18
58739;BME280;44512;53.046;18.604;2023-08-01T21:24:40;100109.73;;;20.36;70.38
58739;BME280;44512;53.046;18.604;2023-08-01T21:35:09;100116.62;;;20.28;69.65
58739;BME280;44512;53.046;18.604;2023-08-01T21:45:37;100127.11;;;20.21;69.68
58739;BME280;44512;53.046;18.604;2023-08-01T21:56:05;100140.27;;;20.19;70.10
58739;BME280;44512;53.046;18.604;2023-08-01T22:06:34;100149.65;;;20.08;69.87
58739;BME280;44512;53.046;18.604;2023-08-01T22:17:02;100153.80;;;20.00;69.65
58739;BME280;44512;53.046;18.604;2023-08-01T22:27:30;100171.64;;;19.88;68.52
58739;BME280;44512;53.046;18.604;2023-08-01T22:37:58;100173.86;;;19.75;67.55
58739;BME280;44512;53.046;18.604;2023-08-01T22:48:27;100179.34;;;19.65;66.37
58739;BME280;44512;53.046;18.604;2023-08-01T22:58:55;100184.23;;;19.58;65.54
58739;BME280;44512;53.046;18.604;2023-08-01T23:09:23;100168.84;;;19.47;65.46
58739;BME280;44512;53.046;18.604;2023-08-01T23:19:51;100184.75;;;19.35;66.25
58739;BME280;44512;53.046;18.604;2023-08-01T23:30:20;100192.15;;;19.24;67.12
58739;BME280;44512;53.046;18.604;2023-08-01T23:40:49;100200.87;;;19.11;67.36
58739;BME280;44512;53.046;18.604;2023-08-01T23:51:17;100207.14;;;19.01;67.17
